KGRR

Gerald R Ford International Airport

Grand Rapids, Michigan, USA
METAR KGRR 181953Z 33006KT 10SM FEW032 BKN100 OVC200 M02/M10 A3015 RMK AO2 SLP221 T10221100
Observed Flight Rules
Jan-18 @ 19:53 UTC (13 minutes ago) Visual Flight Rules
Wind Visibility Clouds
330° at 6 knots 10 miles
  • Few at 3,200' AGL
  • Broken at 10,000' AGL
  • Overcast at 20,000' AGL
Temperatures Readings
Current -2°C / 28°F
Dewpoint -10°C / 14°F
Humidity 55%
Altimeter 30.15" Hg
Pressure 1022.1 hPa
Elevation 237
METAR KGRR 181953Z 33006KT 10SM FEW032 BKN100 OVC200 M02/M10 A3015 RMK AO2 SLP221 T10221100
Observed Flight Rules
Jan-18 @ 19:53 UTC
(13 minutes ago)
VFR
Wind Visibility
330° at 6 knots 10 miles
Clouds
  • Few at 3,200' AGL
  • Broken at 10,000' AGL
  • Overcast at 20,000' AGL
Temperature Dewpoint
-2°C / 28°F -10°C / 14°F
Humidity Altimeter Pressure
55% 30.15" Hg 1022.1 hPa